Adak, Alaska
Current Conditions -  °F | °C
As of 8:16 AM on Thursday 29 Jan 2015 (Local Time) from PADK Reporting Station
Overcast Overcast  
Wind Chill: -5°   Ceiling: 3500
Heat Index:   Visibility: 10mi
Dew Point: -7°   Wind: 18mph
Humidity: 56%   Direction: 20°NNE
Pressure: 30.52"   Gusts: 29mph
Location:  51.88°N, 176.66°W
Report Text: PADK 291816Z AUTO 02016G25KT 10SM OVC035 01/M07 A3052 RMK AO1
Loading
Personal Weather Stations






























Interactive Weather Map New forecast layout! Learn more

10-Day Weather Forecast

Advertisements
Track Severe Weather on mobile